sensor_id;sensor_type;location;lat;lon;timestamp;P1;durP1;ratioP1;P2;durP2;ratioP2
44810;SDS011;30526;52.184;4.476;2022-09-20T00:01:13;7.80;;;0.88;;
44810;SDS011;30526;52.184;4.476;2022-09-20T00:03:40;12.13;;;1.33;;
44810;SDS011;30526;52.184;4.476;2022-09-20T00:06:07;7.43;;;1.30;;
44810;SDS011;30526;52.184;4.476;2022-09-20T00:08:34;26.48;;;2.03;;
44810;SDS011;30526;52.184;4.476;2022-09-20T00:13:26;10.27;;;1.50;;
44810;SDS011;30526;52.184;4.476;2022-09-20T00:15:52;9.85;;;1.20;;
44810;SDS011;30526;52.184;4.476;2022-09-20T00:18:18;6.88;;;1.13;;
44810;SDS011;30526;52.184;4.476;2022-09-20T00:20:47;6.63;;;1.40;;
44810;SDS011;30526;52.184;4.476;2022-09-20T00:23:14;7.25;;;1.15;;
44810;SDS011;30526;52.184;4.476;2022-09-20T00:25:40;6.20;;;1.00;;
44810;SDS011;30526;52.184;4.476;2022-09-20T00:28:06;7.72;;;0.98;;
44810;SDS011;30526;52.184;4.476;2022-09-20T00:30:33;6.10;;;1.20;;
44810;SDS011;30526;52.184;4.476;2022-09-20T00:32:59;8.35;;;1.25;;
44810;SDS011;30526;52.184;4.476;2022-09-20T00:35:26;9.35;;;1.02;;
44810;SDS011;30526;52.184;4.476;2022-09-20T00:37:53;7.70;;;1.48;;
44810;SDS011;30526;52.184;4.476;2022-09-20T00:40:19;10.05;;;1.20;;
44810;SDS011;30526;52.184;4.476;2022-09-20T00:42:46;7.40;;;1.00;;
44810;SDS011;30526;52.184;4.476;2022-09-20T00:47:54;16.42;;;1.40;;
44810;SDS011;30526;52.184;4.476;2022-09-20T00:50:24;8.23;;;1.30;;
44810;SDS011;30526;52.184;4.476;2022-09-20T00:52:53;7.32;;;1.15;;
44810;SDS011;30526;52.184;4.476;2022-09-20T00:55:21;11.90;;;1.60;;
44810;SDS011;30526;52.184;4.476;2022-09-20T00:57:47;11.10;;;1.60;;
44810;SDS011;30526;52.184;4.476;2022-09-20T01:00:13;6.80;;;1.48;;
44810;SDS011;30526;52.184;4.476;2022-09-20T01:02:41;9.68;;;1.27;;
44810;SDS011;30526;52.184;4.476;2022-09-20T01:05:07;7.32;;;1.40;;
44810;SDS011;30526;52.184;4.476;2022-09-20T01:07:34;9.32;;;1.38;;
44810;SDS011;30526;52.184;4.476;2022-09-20T01:10:01;13.85;;;1.48;;
44810;SDS011;30526;52.184;4.476;2022-09-20T01:12:28;12.05;;;1.50;;
44810;SDS011;30526;52.184;4.476;2022-09-20T01:14:54;15.02;;;1.60;;
44810;SDS011;30526;52.184;4.476;2022-09-20T01:17:23;16.67;;;2.00;;
44810;SDS011;30526;52.184;4.476;2022-09-20T01:20:04;10.13;;;1.75;;
44810;SDS011;30526;52.184;4.476;2022-09-20T01:25:15;11.13;;;1.58;;
44810;SDS011;30526;52.184;4.476;2022-09-20T01:30:09;5.15;;;1.30;;
44810;SDS011;30526;52.184;4.476;2022-09-20T01:35:23;10.23;;;1.70;;
44810;SDS011;30526;52.184;4.476;2022-09-20T01:40:38;7.85;;;1.50;;
44810;SDS011;30526;52.184;4.476;2022-09-20T01:45:52;9.82;;;1.55;;
44810;SDS011;30526;52.184;4.476;2022-09-20T01:48:31;9.57;;;1.42;;
44810;SDS011;30526;52.184;4.476;2022-09-20T02:12:18;11.07;;;1.40;;
44810;SDS011;30526;52.184;4.476;2022-09-20T02:36:05;8.13;;;1.48;;
44810;SDS011;30526;52.184;4.476;2022-09-20T02:43:34;9.60;;;1.60;;
44810;SDS011;30526;52.184;4.476;2022-09-20T02:48:42;12.25;;;2.22;;
44810;SDS011;30526;52.184;4.476;2022-09-20T02:56:33;9.60;;;1.58;;
44810;SDS011;30526;52.184;4.476;2022-09-20T02:59:08;5.82;;;1.00;;
44810;SDS011;30526;52.184;4.476;2022-09-20T03:07:06;7.57;;;1.40;;
44810;SDS011;30526;52.184;4.476;2022-09-20T03:09:55;9.07;;;1.48;;
44810;SDS011;30526;52.184;4.476;2022-09-20T03:12:41;9.05;;;1.35;;
44810;SDS011;30526;52.184;4.476;2022-09-20T03:17:51;6.03;;;1.20;;
44810;SDS011;30526;52.184;4.476;2022-09-20T03:26:06;8.07;;;1.65;;
44810;SDS011;30526;52.184;4.476;2022-09-20T03:28:35;8.13;;;1.55;;
44810;SDS011;30526;52.184;4.476;2022-09-20T03:36:07;7.95;;;1.55;;
44810;SDS011;30526;52.184;4.476;2022-09-20T03:41:19;4.68;;;1.13;;
44810;SDS011;30526;52.184;4.476;2022-09-20T03:46:25;7.53;;;1.50;;
44810;SDS011;30526;52.184;4.476;2022-09-20T03:48:59;12.43;;;1.95;;
44810;SDS011;30526;52.184;4.476;2022-09-20T03:51:27;7.72;;;1.58;;
44810;SDS011;30526;52.184;4.476;2022-09-20T03:59:41;8.32;;;1.40;;
44810;SDS011;30526;52.184;4.476;2022-09-20T04:07:21;5.85;;;1.40;;
44810;SDS011;30526;52.184;4.476;2022-09-20T04:15:19;7.90;;;1.55;;
44810;SDS011;30526;52.184;4.476;2022-09-20T04:18:01;6.88;;;1.35;;
44810;SDS011;30526;52.184;4.476;2022-09-20T04:23:02;3.85;;;1.20;;
44810;SDS011;30526;52.184;4.476;2022-09-20T04:25:33;7.40;;;1.40;;
44810;SDS011;30526;52.184;4.476;2022-09-20T04:28:03;8.65;;;1.60;;
44810;SDS011;30526;52.184;4.476;2022-09-20T04:30:30;8.93;;;1.50;;
44810;SDS011;30526;52.184;4.476;2022-09-20T04:33:06;4.80;;;1.50;;
44810;SDS011;30526;52.184;4.476;2022-09-20T04:38:40;8.35;;;1.30;;
44810;SDS011;30526;52.184;4.476;2022-09-20T05:13:15;5.63;;;1.42;;
44810;SDS011;30526;52.184;4.476;2022-09-20T05:28:21;9.60;;;1.50;;
44810;SDS011;30526;52.184;4.476;2022-09-20T05:30:54;7.40;;;1.30;;
44810;SDS011;30526;52.184;4.476;2022-09-20T05:33:27;7.68;;;1.30;;
44810;SDS011;30526;52.184;4.476;2022-09-20T05:38:33;4.80;;;1.42;;
44810;SDS011;30526;52.184;4.476;2022-09-20T05:41:09;12.07;;;1.67;;
44810;SDS011;30526;52.184;4.476;2022-09-20T05:46:09;4.57;;;1.40;;
44810;SDS011;30526;52.184;4.476;2022-09-20T05:49:15;5.78;;;1.35;;
44810;SDS011;30526;52.184;4.476;2022-09-20T05:51:40;9.00;;;1.38;;
44810;SDS011;30526;52.184;4.476;2022-09-20T06:02:19;5.30;;;1.42;;
44810;SDS011;30526;52.184;4.476;2022-09-20T06:04:58;7.82;;;1.80;;
44810;SDS011;30526;52.184;4.476;2022-09-20T06:12:35;12.77;;;1.80;;
44810;SDS011;30526;52.184;4.476;2022-09-20T06:15:19;4.50;;;1.25;;
44810;SDS011;30526;52.184;4.476;2022-09-20T06:18:49;6.88;;;1.42;;
44810;SDS011;30526;52.184;4.476;2022-09-20T06:23:21;7.03;;;1.55;;
44810;SDS011;30526;52.184;4.476;2022-09-20T06:26:12;4.82;;;1.52;;
44810;SDS011;30526;52.184;4.476;2022-09-20T06:28:36;5.17;;;1.37;;
44810;SDS011;30526;52.184;4.476;2022-09-20T06:31:04;7.35;;;1.52;;
44810;SDS011;30526;52.184;4.476;2022-09-20T06:34:09;12.68;;;1.83;;
44810;SDS011;30526;52.184;4.476;2022-09-20T06:36:34;7.32;;;1.85;;
44810;SDS011;30526;52.184;4.476;2022-09-20T06:42:10;9.77;;;1.70;;
44810;SDS011;30526;52.184;4.476;2022-09-20T06:44:36;8.10;;;2.20;;
44810;SDS011;30526;52.184;4.476;2022-09-20T06:47:05;5.55;;;2.05;;
44810;SDS011;30526;52.184;4.476;2022-09-20T06:49:32;10.05;;;1.98;;
44810;SDS011;30526;52.184;4.476;2022-09-20T06:52:00;5.93;;;1.25;;
44810;SDS011;30526;52.184;4.476;2022-09-20T06:54:26;8.20;;;2.20;;
44810;SDS011;30526;52.184;4.476;2022-09-20T06:56:53;6.28;;;1.60;;
44810;SDS011;30526;52.184;4.476;2022-09-20T06:59:19;15.50;;;2.35;;
44810;SDS011;30526;52.184;4.476;2022-09-20T07:01:45;8.40;;;1.58;;
44810;SDS011;30526;52.184;4.476;2022-09-20T07:04:12;8.85;;;1.35;;
44810;SDS011;30526;52.184;4.476;2022-09-20T07:06:38;10.60;;;1.52;;
44810;SDS011;30526;52.184;4.476;2022-09-20T07:09:04;6.97;;;1.20;;
44810;SDS011;30526;52.184;4.476;2022-09-20T07:11:30;7.07;;;1.30;;
44810;SDS011;30526;52.184;4.476;2022-09-20T07:13:59;6.15;;;0.90;;
44810;SDS011;30526;52.184;4.476;2022-09-20T07:16:25;11.57;;;1.40;;
44810;SDS011;30526;52.184;4.476;2022-09-20T07:18:51;9.35;;;0.95;;
44810;SDS011;30526;52.184;4.476;2022-09-20T07:21:18;8.25;;;0.98;;
44810;SDS011;30526;52.184;4.476;2022-09-20T07:23:44;6.65;;;0.85;;
44810;SDS011;30526;52.184;4.476;2022-09-20T07:26:17;2.80;;;0.88;;
44810;SDS011;30526;52.184;4.476;2022-09-20T07:28:43;5.32;;;0.90;;
44810;SDS011;30526;52.184;4.476;2022-09-20T07:31:09;4.10;;;1.00;;
44810;SDS011;30526;52.184;4.476;2022-09-20T07:33:35;8.32;;;1.10;;
44810;SDS011;30526;52.184;4.476;2022-09-20T07:36:01;5.65;;;0.80;;
44810;SDS011;30526;52.184;4.476;2022-09-20T07:38:27;8.73;;;1.48;;
44810;SDS011;30526;52.184;4.476;2022-09-20T07:40:56;6.47;;;1.05;;
44810;SDS011;30526;52.184;4.476;2022-09-20T07:43:23;8.80;;;1.50;;
44810;SDS011;30526;52.184;4.476;2022-09-20T07:45:50;6.50;;;1.08;;
44810;SDS011;30526;52.184;4.476;2022-09-20T07:48:20;5.35;;;0.95;;
44810;SDS011;30526;52.184;4.476;2022-09-20T07:50:53;3.13;;;0.73;;
44810;SDS011;30526;52.184;4.476;2022-09-20T07:53:20;3.83;;;0.80;;
44810;SDS011;30526;52.184;4.476;2022-09-20T07:55:55;6.88;;;1.00;;
44810;SDS011;30526;52.184;4.476;2022-09-20T07:58:21;7.55;;;1.25;;
44810;SDS011;30526;52.184;4.476;2022-09-20T08:00:57;10.18;;;2.53;;
44810;SDS011;30526;52.184;4.476;2022-09-20T08:03:24;6.15;;;0.93;;
44810;SDS011;30526;52.184;4.476;2022-09-20T08:05:50;7.38;;;1.17;;
44810;SDS011;30526;52.184;4.476;2022-09-20T08:08:18;5.55;;;0.98;;
44810;SDS011;30526;52.184;4.476;2022-09-20T08:10:44;6.57;;;1.00;;
44810;SDS011;30526;52.184;4.476;2022-09-20T08:13:13;4.22;;;1.20;;
44810;SDS011;30526;52.184;4.476;2022-09-20T08:15:39;5.72;;;1.02;;
44810;SDS011;30526;52.184;4.476;2022-09-20T08:18:08;9.15;;;1.20;;
44810;SDS011;30526;52.184;4.476;2022-09-20T08:20:40;6.95;;;1.50;;
44810;SDS011;30526;52.184;4.476;2022-09-20T08:23:06;3.50;;;1.10;;
44810;SDS011;30526;52.184;4.476;2022-09-20T08:25:34;7.00;;;1.20;;
44810;SDS011;30526;52.184;4.476;2022-09-20T08:28:00;9.10;;;1.23;;
44810;SDS011;30526;52.184;4.476;2022-09-20T08:30:26;5.25;;;1.00;;
44810;SDS011;30526;52.184;4.476;2022-09-20T08:32:52;4.00;;;1.27;;
44810;SDS011;30526;52.184;4.476;2022-09-20T08:35:19;9.88;;;1.48;;
44810;SDS011;30526;52.184;4.476;2022-09-20T08:37:46;6.85;;;0.80;;
44810;SDS011;30526;52.184;4.476;2022-09-20T08:40:12;3.13;;;1.10;;
44810;SDS011;30526;52.184;4.476;2022-09-20T08:42:39;6.80;;;0.80;;
44810;SDS011;30526;52.184;4.476;2022-09-20T08:45:18;9.57;;;1.45;;
44810;SDS011;30526;52.184;4.476;2022-09-20T08:47:55;10.90;;;1.25;;
44810;SDS011;30526;52.184;4.476;2022-09-20T08:50:22;7.72;;;1.25;;
44810;SDS011;30526;52.184;4.476;2022-09-20T08:52:48;5.63;;;1.08;;
44810;SDS011;30526;52.184;4.476;2022-09-20T08:57:46;3.97;;;0.85;;
44810;SDS011;30526;52.184;4.476;2022-09-20T09:00:20;9.60;;;1.20;;
44810;SDS011;30526;52.184;4.476;2022-09-20T09:02:47;3.90;;;0.98;;
44810;SDS011;30526;52.184;4.476;2022-09-20T09:05:21;6.20;;;1.15;;
44810;SDS011;30526;52.184;4.476;2022-09-20T09:07:51;7.15;;;0.88;;
44810;SDS011;30526;52.184;4.476;2022-09-20T09:10:17;8.15;;;1.17;;
44810;SDS011;30526;52.184;4.476;2022-09-20T09:12:43;10.32;;;1.85;;
44810;SDS011;30526;52.184;4.476;2022-09-20T09:15:56;4.50;;;1.30;;
44810;SDS011;30526;52.184;4.476;2022-09-20T09:17:56;8.38;;;1.10;;
44810;SDS011;30526;52.184;4.476;2022-09-20T09:20:22;7.03;;;1.00;;
44810;SDS011;30526;52.184;4.476;2022-09-20T09:23:07;7.50;;;1.10;;
44810;SDS011;30526;52.184;4.476;2022-09-20T09:25:37;8.52;;;1.20;;
44810;SDS011;30526;52.184;4.476;2022-09-20T09:35:40;5.50;;;1.10;;
44810;SDS011;30526;52.184;4.476;2022-09-20T09:38:14;3.25;;;0.82;;
44810;SDS011;30526;52.184;4.476;2022-09-20T09:40:48;4.10;;;0.90;;
44810;SDS011;30526;52.184;4.476;2022-09-20T09:43:18;6.22;;;1.30;;
44810;SDS011;30526;52.184;4.476;2022-09-20T09:45:47;7.78;;;1.13;;
44810;SDS011;30526;52.184;4.476;2022-09-20T09:48:23;2.97;;;0.60;;
44810;SDS011;30526;52.184;4.476;2022-09-20T09:50:49;4.13;;;1.00;;
44810;SDS011;30526;52.184;4.476;2022-09-20T09:53:19;4.18;;;0.77;;
44810;SDS011;30526;52.184;4.476;2022-09-20T09:55:56;4.72;;;1.02;;
44810;SDS011;30526;52.184;4.476;2022-09-20T09:58:30;7.53;;;1.10;;
44810;SDS011;30526;52.184;4.476;2022-09-20T10:00:59;6.97;;;1.00;;
44810;SDS011;30526;52.184;4.476;2022-09-20T10:03:40;6.07;;;1.40;;
44810;SDS011;30526;52.184;4.476;2022-09-20T10:06:13;5.60;;;0.75;;
44810;SDS011;30526;52.184;4.476;2022-09-20T10:22:00;3.83;;;0.93;;
44810;SDS011;30526;52.184;4.476;2022-09-20T10:27:29;5.05;;;1.20;;
44810;SDS011;30526;52.184;4.476;2022-09-20T10:30:01;3.28;;;0.85;;
44810;SDS011;30526;52.184;4.476;2022-09-20T10:32:34;5.00;;;0.93;;
44810;SDS011;30526;52.184;4.476;2022-09-20T10:35:53;7.22;;;0.98;;
44810;SDS011;30526;52.184;4.476;2022-09-20T10:38:01;4.70;;;1.05;;
44810;SDS011;30526;52.184;4.476;2022-09-20T10:43:27;4.10;;;1.10;;
44810;SDS011;30526;52.184;4.476;2022-09-20T10:48:31;7.78;;;1.10;;
44810;SDS011;30526;52.184;4.476;2022-09-20T10:53:36;4.28;;;0.70;;
44810;SDS011;30526;52.184;4.476;2022-09-20T11:06:54;4.50;;;1.00;;
44810;SDS011;30526;52.184;4.476;2022-09-20T11:09:28;3.97;;;0.65;;
44810;SDS011;30526;52.184;4.476;2022-09-20T11:12:02;3.80;;;1.00;;
44810;SDS011;30526;52.184;4.476;2022-09-20T11:14:37;8.80;;;1.42;;
44810;SDS011;30526;52.184;4.476;2022-09-20T11:17:06;4.07;;;1.05;;
44810;SDS011;30526;52.184;4.476;2022-09-20T11:22:04;6.75;;;0.73;;
44810;SDS011;30526;52.184;4.476;2022-09-20T11:24:34;6.97;;;1.10;;
44810;SDS011;30526;52.184;4.476;2022-09-20T11:27:03;3.83;;;0.77;;
44810;SDS011;30526;52.184;4.476;2022-09-20T11:29:43;4.53;;;0.85;;
44810;SDS011;30526;52.184;4.476;2022-09-20T11:32:14;3.55;;;1.00;;
44810;SDS011;30526;52.184;4.476;2022-09-20T11:34:48;8.18;;;0.90;;
44810;SDS011;30526;52.184;4.476;2022-09-20T11:37:15;9.35;;;1.08;;
44810;SDS011;30526;52.184;4.476;2022-09-20T11:39:43;6.13;;;0.95;;
44810;SDS011;30526;52.184;4.476;2022-09-20T11:42:15;7.10;;;0.95;;
44810;SDS011;30526;52.184;4.476;2022-09-20T11:44:44;3.50;;;0.73;;
44810;SDS011;30526;52.184;4.476;2022-09-20T11:47:29;7.38;;;1.10;;
44810;SDS011;30526;52.184;4.476;2022-09-20T11:57:30;4.30;;;0.85;;
44810;SDS011;30526;52.184;4.476;2022-09-20T12:00:00;7.75;;;0.82;;
44810;SDS011;30526;52.184;4.476;2022-09-20T12:04:53;10.15;;;0.85;;
44810;SDS011;30526;52.184;4.476;2022-09-20T12:07:34;5.70;;;1.23;;
44810;SDS011;30526;52.184;4.476;2022-09-20T12:10:02;11.25;;;1.40;;
44810;SDS011;30526;52.184;4.476;2022-09-20T12:12:30;6.35;;;1.00;;
44810;SDS011;30526;52.184;4.476;2022-09-20T12:14:57;5.10;;;0.95;;
44810;SDS011;30526;52.184;4.476;2022-09-20T12:23:41;6.85;;;0.95;;
44810;SDS011;30526;52.184;4.476;2022-09-20T12:25:39;2.42;;;0.80;;
44810;SDS011;30526;52.184;4.476;2022-09-20T12:28:10;1.85;;;0.55;;
44810;SDS011;30526;52.184;4.476;2022-09-20T12:30:38;3.90;;;0.90;;
44810;SDS011;30526;52.184;4.476;2022-09-20T12:33:07;6.63;;;1.15;;
44810;SDS011;30526;52.184;4.476;2022-09-20T12:35:59;7.03;;;1.10;;
44810;SDS011;30526;52.184;4.476;2022-09-20T12:38:37;4.03;;;0.70;;
44810;SDS011;30526;52.184;4.476;2022-09-20T12:43:29;5.30;;;0.95;;
44810;SDS011;30526;52.184;4.476;2022-09-20T12:45:56;3.53;;;0.70;;
44810;SDS011;30526;52.184;4.476;2022-09-20T12:48:23;3.85;;;0.93;;
44810;SDS011;30526;52.184;4.476;2022-09-20T12:53:57;4.13;;;1.20;;
44810;SDS011;30526;52.184;4.476;2022-09-20T12:56:23;1.70;;;0.63;;
44810;SDS011;30526;52.184;4.476;2022-09-20T12:58:52;5.63;;;0.70;;
44810;SDS011;30526;52.184;4.476;2022-09-20T13:03:47;3.95;;;0.70;;
44810;SDS011;30526;52.184;4.476;2022-09-20T13:13:50;3.97;;;1.00;;
44810;SDS011;30526;52.184;4.476;2022-09-20T13:16:21;2.92;;;0.70;;
44810;SDS011;30526;52.184;4.476;2022-09-20T13:18:55;1.75;;;0.50;;
44810;SDS011;30526;52.184;4.476;2022-09-20T13:21:23;4.22;;;0.75;;
44810;SDS011;30526;52.184;4.476;2022-09-20T13:23:49;2.17;;;0.60;;
44810;SDS011;30526;52.184;4.476;2022-09-20T13:26:19;4.28;;;0.75;;
44810;SDS011;30526;52.184;4.476;2022-09-20T13:28:51;2.03;;;0.57;;
44810;SDS011;30526;52.184;4.476;2022-09-20T13:31:31;3.28;;;0.57;;
44810;SDS011;30526;52.184;4.476;2022-09-20T13:34:12;3.10;;;0.68;;
44810;SDS011;30526;52.184;4.476;2022-09-20T13:36:38;5.10;;;0.60;;
44810;SDS011;30526;52.184;4.476;2022-09-20T13:39:04;2.20;;;0.67;;
44810;SDS011;30526;52.184;4.476;2022-09-20T13:41:31;5.20;;;0.82;;
44810;SDS011;30526;52.184;4.476;2022-09-20T13:43:59;1.80;;;0.50;;
44810;SDS011;30526;52.184;4.476;2022-09-20T13:46:32;3.45;;;0.85;;
44810;SDS011;30526;52.184;4.476;2022-09-20T13:51:33;3.83;;;0.88;;
44810;SDS011;30526;52.184;4.476;2022-09-20T13:54:16;1.50;;;0.50;;
44810;SDS011;30526;52.184;4.476;2022-09-20T13:56:43;3.10;;;0.82;;
44810;SDS011;30526;52.184;4.476;2022-09-20T13:59:09;2.53;;;0.85;;
44810;SDS011;30526;52.184;4.476;2022-09-20T14:01:38;1.67;;;0.70;;
44810;SDS011;30526;52.184;4.476;2022-09-20T14:04:07;4.90;;;0.80;;
44810;SDS011;30526;52.184;4.476;2022-09-20T14:06:37;2.58;;;0.60;;
44810;SDS011;30526;52.184;4.476;2022-09-20T14:09:04;2.13;;;0.57;;
44810;SDS011;30526;52.184;4.476;2022-09-20T14:11:31;2.33;;;0.63;;
44810;SDS011;30526;52.184;4.476;2022-09-20T14:13:58;3.25;;;0.70;;
44810;SDS011;30526;52.184;4.476;2022-09-20T14:16:29;3.17;;;0.82;;
44810;SDS011;30526;52.184;4.476;2022-09-20T14:18:56;1.42;;;0.50;;
44810;SDS011;30526;52.184;4.476;2022-09-20T14:21:23;2.40;;;0.93;;
44810;SDS011;30526;52.184;4.476;2022-09-20T14:23:51;5.07;;;0.70;;
44810;SDS011;30526;52.184;4.476;2022-09-20T14:26:22;3.50;;;0.70;;
44810;SDS011;30526;52.184;4.476;2022-09-20T14:28:48;3.05;;;0.80;;
44810;SDS011;30526;52.184;4.476;2022-09-20T14:31:19;2.30;;;0.70;;
44810;SDS011;30526;52.184;4.476;2022-09-20T14:33:47;1.33;;;0.65;;
44810;SDS011;30526;52.184;4.476;2022-09-20T14:36:19;3.70;;;0.95;;
44810;SDS011;30526;52.184;4.476;2022-09-20T14:38:46;4.72;;;0.90;;
44810;SDS011;30526;52.184;4.476;2022-09-20T14:41:12;1.88;;;0.60;;
44810;SDS011;30526;52.184;4.476;2022-09-20T14:43:38;3.13;;;0.80;;
44810;SDS011;30526;52.184;4.476;2022-09-20T14:46:15;4.90;;;0.75;;
44810;SDS011;30526;52.184;4.476;2022-09-20T14:48:42;5.10;;;0.80;;
44810;SDS011;30526;52.184;4.476;2022-09-20T14:53:43;4.07;;;0.70;;
44810;SDS011;30526;52.184;4.476;2022-09-20T14:56:10;2.70;;;0.80;;
44810;SDS011;30526;52.184;4.476;2022-09-20T15:01:22;4.43;;;1.27;;
44810;SDS011;30526;52.184;4.476;2022-09-20T15:03:48;3.17;;;0.82;;
44810;SDS011;30526;52.184;4.476;2022-09-20T15:06:14;2.28;;;0.60;;
44810;SDS011;30526;52.184;4.476;2022-09-20T15:08:40;1.52;;;0.50;;
44810;SDS011;30526;52.184;4.476;2022-09-20T15:11:11;2.20;;;0.93;;
44810;SDS011;30526;52.184;4.476;2022-09-20T15:13:38;1.70;;;0.50;;
44810;SDS011;30526;52.184;4.476;2022-09-20T15:16:04;1.43;;;0.50;;
44810;SDS011;30526;52.184;4.476;2022-09-20T15:18:34;3.53;;;0.60;;
44810;SDS011;30526;52.184;4.476;2022-09-20T15:21:01;5.82;;;0.75;;
44810;SDS011;30526;52.184;4.476;2022-09-20T15:23:28;0.57;;;0.40;;
44810;SDS011;30526;52.184;4.476;2022-09-20T15:25:53;3.50;;;0.70;;
44810;SDS011;30526;52.184;4.476;2022-09-20T15:28:20;2.17;;;0.67;;
44810;SDS011;30526;52.184;4.476;2022-09-20T15:33:13;5.15;;;0.90;;
44810;SDS011;30526;52.184;4.476;2022-09-20T15:35:39;6.78;;;0.50;;
44810;SDS011;30526;52.184;4.476;2022-09-20T15:38:06;2.03;;;0.60;;
44810;SDS011;30526;52.184;4.476;2022-09-20T15:40:35;1.15;;;0.45;;
44810;SDS011;30526;52.184;4.476;2022-09-20T15:43:02;2.00;;;0.47;;
44810;SDS011;30526;52.184;4.476;2022-09-20T15:45:28;2.55;;;0.60;;
44810;SDS011;30526;52.184;4.476;2022-09-20T15:47:54;3.03;;;0.90;;
44810;SDS011;30526;52.184;4.476;2022-09-20T15:50:22;3.55;;;1.08;;
44810;SDS011;30526;52.184;4.476;2022-09-20T15:55:17;2.00;;;0.60;;
44810;SDS011;30526;52.184;4.476;2022-09-20T15:57:43;4.32;;;0.70;;
44810;SDS011;30526;52.184;4.476;2022-09-20T16:00:09;3.45;;;0.85;;
44810;SDS011;30526;52.184;4.476;2022-09-20T16:02:35;2.47;;;0.70;;
44810;SDS011;30526;52.184;4.476;2022-09-20T16:05:01;2.33;;;0.80;;
44810;SDS011;30526;52.184;4.476;2022-09-20T16:07:28;3.47;;;0.70;;
44810;SDS011;30526;52.184;4.476;2022-09-20T16:09:54;1.92;;;0.55;;
44810;SDS011;30526;52.184;4.476;2022-09-20T16:12:21;3.30;;;0.90;;
44810;SDS011;30526;52.184;4.476;2022-09-20T16:14:48;1.60;;;0.60;;
44810;SDS011;30526;52.184;4.476;2022-09-20T16:17:14;1.58;;;0.60;;
44810;SDS011;30526;52.184;4.476;2022-09-20T16:19:40;2.70;;;0.77;;
44810;SDS011;30526;52.184;4.476;2022-09-20T16:22:06;6.60;;;0.80;;
44810;SDS011;30526;52.184;4.476;2022-09-20T16:24:33;6.63;;;0.73;;
44810;SDS011;30526;52.184;4.476;2022-09-20T16:27:00;2.00;;;0.80;;
44810;SDS011;30526;52.184;4.476;2022-09-20T16:29:26;3.63;;;0.98;;
44810;SDS011;30526;52.184;4.476;2022-09-20T16:31:54;2.97;;;0.80;;
44810;SDS011;30526;52.184;4.476;2022-09-20T16:36:51;6.00;;;0.95;;
44810;SDS011;30526;52.184;4.476;2022-09-20T16:39:18;3.28;;;0.80;;
44810;SDS011;30526;52.184;4.476;2022-09-20T16:41:45;2.65;;;1.05;;
44810;SDS011;30526;52.184;4.476;2022-09-20T16:44:12;6.85;;;0.80;;
44810;SDS011;30526;52.184;4.476;2022-09-20T16:46:38;3.28;;;0.88;;
44810;SDS011;30526;52.184;4.476;2022-09-20T16:49:05;3.80;;;0.55;;
44810;SDS011;30526;52.184;4.476;2022-09-20T16:51:33;2.13;;;0.70;;
44810;SDS011;30526;52.184;4.476;2022-09-20T16:54:00;3.13;;;0.77;;
44810;SDS011;30526;52.184;4.476;2022-09-20T16:58:57;4.85;;;0.77;;
44810;SDS011;30526;52.184;4.476;2022-09-20T17:01:24;5.88;;;1.02;;
44810;SDS011;30526;52.184;4.476;2022-09-20T17:03:50;5.95;;;1.10;;
44810;SDS011;30526;52.184;4.476;2022-09-20T17:06:16;4.35;;;0.80;;
44810;SDS011;30526;52.184;4.476;2022-09-20T17:08:43;3.03;;;0.90;;
44810;SDS011;30526;52.184;4.476;2022-09-20T17:11:13;6.68;;;1.30;;
44810;SDS011;30526;52.184;4.476;2022-09-20T17:13:40;4.13;;;0.60;;
44810;SDS011;30526;52.184;4.476;2022-09-20T17:16:08;4.47;;;0.93;;
44810;SDS011;30526;52.184;4.476;2022-09-20T17:18:35;4.78;;;0.80;;
44810;SDS011;30526;52.184;4.476;2022-09-20T17:21:11;7.20;;;1.50;;
44810;SDS011;30526;52.184;4.476;2022-09-20T17:23:40;4.32;;;1.02;;
44810;SDS011;30526;52.184;4.476;2022-09-20T17:28:39;7.13;;;1.17;;
44810;SDS011;30526;52.184;4.476;2022-09-20T17:31:06;3.95;;;1.08;;
44810;SDS011;30526;52.184;4.476;2022-09-20T17:33:33;4.35;;;1.25;;
44810;SDS011;30526;52.184;4.476;2022-09-20T17:35:59;8.20;;;0.90;;
44810;SDS011;30526;52.184;4.476;2022-09-20T17:38:26;8.25;;;1.50;;
44810;SDS011;30526;52.184;4.476;2022-09-20T17:41:00;4.55;;;0.85;;
44810;SDS011;30526;52.184;4.476;2022-09-20T17:43:27;6.65;;;1.10;;
44810;SDS011;30526;52.184;4.476;2022-09-20T17:45:55;3.95;;;0.98;;
44810;SDS011;30526;52.184;4.476;2022-09-20T17:48:21;10.38;;;1.70;;
44810;SDS011;30526;52.184;4.476;2022-09-20T17:50:54;3.85;;;0.93;;
44810;SDS011;30526;52.184;4.476;2022-09-20T17:53:21;10.38;;;1.10;;
44810;SDS011;30526;52.184;4.476;2022-09-20T17:55:56;8.68;;;1.33;;
44810;SDS011;30526;52.184;4.476;2022-09-20T17:58:22;8.45;;;1.10;;
44810;SDS011;30526;52.184;4.476;2022-09-20T18:03:15;12.20;;;1.33;;
44810;SDS011;30526;52.184;4.476;2022-09-20T18:05:42;5.60;;;1.00;;
44810;SDS011;30526;52.184;4.476;2022-09-20T18:08:08;3.03;;;0.82;;
44810;SDS011;30526;52.184;4.476;2022-09-20T18:10:34;4.97;;;1.02;;
44810;SDS011;30526;52.184;4.476;2022-09-20T18:13:00;2.10;;;0.82;;
44810;SDS011;30526;52.184;4.476;2022-09-20T18:15:26;6.65;;;1.13;;
44810;SDS011;30526;52.184;4.476;2022-09-20T18:17:52;9.65;;;1.20;;
44810;SDS011;30526;52.184;4.476;2022-09-20T18:20:18;5.18;;;1.58;;
44810;SDS011;30526;52.184;4.476;2022-09-20T18:22:47;12.57;;;1.92;;
44810;SDS011;30526;52.184;4.476;2022-09-20T18:25:13;7.30;;;2.00;;
44810;SDS011;30526;52.184;4.476;2022-09-20T18:27:39;5.97;;;1.63;;
44810;SDS011;30526;52.184;4.476;2022-09-20T18:30:06;8.50;;;1.90;;
44810;SDS011;30526;52.184;4.476;2022-09-20T18:32:32;8.70;;;1.73;;
44810;SDS011;30526;52.184;4.476;2022-09-20T18:34:58;2.78;;;1.30;;
44810;SDS011;30526;52.184;4.476;2022-09-20T18:37:24;7.35;;;1.92;;
44810;SDS011;30526;52.184;4.476;2022-09-20T18:39:50;10.15;;;1.45;;
44810;SDS011;30526;52.184;4.476;2022-09-20T18:42:16;5.57;;;1.80;;
44810;SDS011;30526;52.184;4.476;2022-09-20T18:44:42;4.50;;;1.23;;
44810;SDS011;30526;52.184;4.476;2022-09-20T18:47:09;3.95;;;1.10;;
44810;SDS011;30526;52.184;4.476;2022-09-20T18:49:35;3.85;;;1.50;;
44810;SDS011;30526;52.184;4.476;2022-09-20T18:52:01;3.97;;;1.20;;
44810;SDS011;30526;52.184;4.476;2022-09-20T18:54:27;5.55;;;1.10;;
44810;SDS011;30526;52.184;4.476;2022-09-20T18:56:57;7.00;;;1.02;;
44810;SDS011;30526;52.184;4.476;2022-09-20T18:59:24;3.67;;;1.10;;
44810;SDS011;30526;52.184;4.476;2022-09-20T19:17:14;7.03;;;1.38;;
44810;SDS011;30526;52.184;4.476;2022-09-20T19:19:53;5.63;;;1.20;;
44810;SDS011;30526;52.184;4.476;2022-09-20T19:25:01;4.45;;;1.38;;
44810;SDS011;30526;52.184;4.476;2022-09-20T19:27:29;4.82;;;1.10;;
44810;SDS011;30526;52.184;4.476;2022-09-20T19:29:55;6.78;;;1.00;;
44810;SDS011;30526;52.184;4.476;2022-09-20T19:32:21;4.60;;;0.95;;
44810;SDS011;30526;52.184;4.476;2022-09-20T19:34:50;6.40;;;1.25;;
44810;SDS011;30526;52.184;4.476;2022-09-20T19:39:51;5.90;;;1.52;;
44810;SDS011;30526;52.184;4.476;2022-09-20T19:42:29;3.77;;;1.00;;
44810;SDS011;30526;52.184;4.476;2022-09-20T19:50:20;5.82;;;1.10;;
44810;SDS011;30526;52.184;4.476;2022-09-20T19:52:52;5.60;;;1.02;;
44810;SDS011;30526;52.184;4.476;2022-09-20T19:55:18;5.35;;;1.10;;
44810;SDS011;30526;52.184;4.476;2022-09-20T19:57:45;3.70;;;0.80;;
44810;SDS011;30526;52.184;4.476;2022-09-20T20:00:15;2.22;;;1.00;;
44810;SDS011;30526;52.184;4.476;2022-09-20T20:02:42;5.35;;;1.10;;
44810;SDS011;30526;52.184;4.476;2022-09-20T20:05:18;2.53;;;1.00;;
44810;SDS011;30526;52.184;4.476;2022-09-20T20:10:19;6.82;;;1.30;;
44810;SDS011;30526;52.184;4.476;2022-09-20T20:12:49;5.47;;;1.30;;
44810;SDS011;30526;52.184;4.476;2022-09-20T20:15:26;4.80;;;1.10;;
44810;SDS011;30526;52.184;4.476;2022-09-20T20:17:57;3.25;;;1.20;;